Tropical Cyclones
[Index]
Main Index Home Page Stock Weather Photos Extreme Storms Discussion Storm News and Storm Chasing Reports Tropical Cyclones / Hurricanes / Typhoons Weather Data and Links Wild Fires / Bushfires Weather Observation Techniques Weather Picture Catalogue Tornado Pictures and Reports Stock Video Footage and DVDs for sale
Season 1958-1959 Tropical Cyclone BERTHA Track Map
Season 1958-1959 Summaries: [BoM-AU] [JTWC-AU] [JTWC-SIO] [JTWC-SPAC] [JTWC-SH]
<<- Previous TC | BoM 1958-1959 Season | Next TC ->>

click for intensity scale information  Lat/long Grid: Show Hide

 Date Labels: Show Hide

Bureau of Meteorology Tropical Cyclone Data

Name: BERTHA
Number: 313 / 195859_04

04 Jan 1959 01:00 UTC to 22 Jan 1959 23:00 UTC

    date/time    lat    long    hPa   cat  kts
1959-01-04 01   13.9   123.8    998                     
1959-01-05 01   15.0   125.0    992    1                
1959-01-05 22   15.0   125.3    987    1                
1959-01-06 01   15.0   125.5    985    2                
1959-01-07 01   16.1   127.5    990    1                
1959-01-08 01   17.1   128.0    991    1                
1959-01-08 03   17.5   128.1    991    1                
1959-01-09 01   16.0   126.0    992    1                
1959-01-09 06   15.9   126.1    993    1                
1959-01-10 01   15.8   126.6    994    1                
1959-01-10 12   15.5   128.0    994    1                
1959-01-10 22   14.8   129.0    996                     
1959-01-10 23   14.8   129.5    996                     
1959-01-11 23   17.1   135.5    998                     
1959-01-12 23   18.0   139.8    998                     
1959-01-13 23   18.7   141.6    999                     
1959-01-14 05   19.5   142.0    997                     
1959-01-14 23   18.8   139.9    998                     
1959-01-15 05   18.1   139.3    998                     
1959-01-15 11   17.9   140.0    992    1                
1959-01-15 23   16.5   139.9    992    1                
1959-01-16 23   15.5   137.3    993    1                
1959-01-17 17   14.3   137.1    994    1                
1959-01-17 23   15.0   138.1    994    1                
1959-01-18 21   16.5   140.9    995    1                
1959-01-18 23   16.3   141.2    995    1                
1959-01-19 05   16.1   142.0    992    1                
1959-01-19 11   16.5   142.6    992    1                
1959-01-19 17   16.0   144.9    986    1                
1959-01-19 19   16.3   145.3    985    2                
1959-01-19 23   16.9   146.0    984    2                
1959-01-20 05   16.9   149.2    980    2                
1959-01-20 11   17.0   150.3    980    2                
1959-01-20 17   17.5   152.5    984    2                
1959-01-20 23   17.9   154.5    990    1                
1959-01-21 09   17.1   159.3    996                     
1959-01-21 17   19.0   161.7    996                     
1959-01-21 23   21.0   161.0    996                     
1959-01-22 09   22.2   159.5    996                     
1959-01-22 23   21.4   159.0    998                     
Winds are 10-min average.

Tropical cyclone tracks developed by Michael Bath using data from the Bureau of Meteorology and Google Maps.


[Australian Severe Weather index] [Copyright Notice] [Email Contacts] [Search This Site] [Privacy Policy]
Document: tropical_cyclone_bertha.htm Updated: 30 May 2013